createdAt,value
2022-11-01T00:01:56.861Z,100831.80
2022-11-01T00:05:04.843Z,100833.00
2022-11-01T00:08:11.728Z,100835.00
2022-11-01T00:11:18.837Z,100829.60
2022-11-01T00:14:31.817Z,100838.00
2022-11-01T00:17:41.802Z,100838.60
2022-11-01T00:20:48.783Z,100839.60
2022-11-01T00:23:55.832Z,100840.20
2022-11-01T00:27:05.778Z,100839.20
2022-11-01T00:30:15.833Z,100829.80
2022-11-01T00:33:22.911Z,100837.00
2022-11-01T00:36:29.851Z,100835.00
2022-11-01T00:39:42.897Z,100841.00
2022-11-01T00:42:52.895Z,100839.80
2022-11-01T00:46:02.904Z,100837.00
2022-11-01T00:49:13.898Z,100835.40
2022-11-01T00:52:20.889Z,100835.40
2022-11-01T00:55:30.927Z,100839.00
2022-11-01T00:58:40.875Z,100833.40
2022-11-01T01:01:48.038Z,100835.60
2022-11-01T01:05:00.905Z,100835.60
2022-11-01T01:08:18.428Z,100829.20
2022-11-01T01:11:33.027Z,100829.00
2022-11-01T01:14:47.137Z,100828.40
2022-11-01T01:17:59.600Z,100828.00
2022-11-01T01:21:07.033Z,100827.60
2022-11-01T01:24:15.000Z,100822.20
2022-11-01T01:27:28.091Z,100824.20
2022-11-01T01:30:41.011Z,100825.60
2022-11-01T01:33:48.043Z,100825.00
2022-11-01T01:37:03.192Z,100823.60
2022-11-01T01:40:34.049Z,100822.80
2022-11-01T01:43:43.985Z,100821.00
2022-11-01T01:46:51.099Z,100824.00
2022-11-01T01:50:04.276Z,100820.60
2022-11-01T01:53:23.932Z,100823.60
2022-11-01T01:56:31.013Z,100823.00
2022-11-01T01:59:38.056Z,100820.20
2022-11-01T02:02:48.084Z,100820.80
2022-11-01T02:05:55.035Z,100821.40
2022-11-01T02:09:05.297Z,100822.20
2022-11-01T02:12:21.066Z,100829.00
2022-11-01T02:15:31.189Z,100830.20
2022-11-01T02:18:38.041Z,100831.20
2022-11-01T02:21:45.081Z,100826.80
2022-11-01T02:24:55.082Z,100830.40
2022-11-01T02:28:05.187Z,100831.80
2022-11-01T02:31:15.168Z,100831.60
2022-11-01T02:34:25.336Z,100829.60
2022-11-01T02:41:45.703Z,100837.40
2022-11-01T02:45:30.296Z,100836.40
2022-11-01T02:49:06.413Z,100834.40
2022-11-01T02:52:17.329Z,100833.60
2022-11-01T02:55:27.345Z,100827.80
2022-11-01T03:02:08.382Z,100845.80
2022-11-01T03:12:42.329Z,100853.40
2022-11-01T03:16:34.960Z,100852.00
2022-11-01T03:20:26.675Z,100854.80
2022-11-01T03:24:10.400Z,100855.40
2022-11-01T03:27:27.526Z,100858.20
2022-11-01T03:31:30.956Z,100856.00
2022-11-01T03:35:27.007Z,100851.80
2022-11-01T03:39:19.171Z,100850.40
2022-11-01T03:42:43.366Z,100847.80
2022-11-01T03:46:24.424Z,100848.20
2022-11-01T03:49:34.353Z,100848.80
2022-11-01T03:56:37.376Z,100844.20
2022-11-01T04:00:17.343Z,100845.20
2022-11-01T04:03:35.901Z,100846.20
2022-11-01T04:10:26.462Z,100836.20
2022-11-01T04:17:02.404Z,100835.20
2022-11-01T04:20:53.651Z,100837.20
2022-11-01T04:24:13.288Z,100836.80
2022-11-01T04:27:32.450Z,100836.00
2022-11-01T04:30:44.480Z,100839.80
2022-11-01T04:34:05.499Z,100843.20
2022-11-01T04:48:55.857Z,100838.00
2022-11-01T04:52:21.158Z,100838.60
2022-11-01T04:55:30.420Z,100835.80
2022-11-01T04:58:44.734Z,100835.00
2022-11-01T05:01:53.648Z,100835.20
2022-11-01T05:05:01.478Z,100829.00
2022-11-01T05:08:16.593Z,100832.60
2022-11-01T05:11:26.520Z,100834.20
2022-11-01T05:14:36.524Z,100836.80
2022-11-01T05:17:47.353Z,100835.40
2022-11-01T05:21:04.523Z,100837.60
2022-11-01T05:24:11.639Z,100840.80
2022-11-01T05:27:24.602Z,100841.20
2022-11-01T05:30:34.621Z,100841.40
2022-11-01T05:33:41.749Z,100848.20
2022-11-01T05:36:48.720Z,100844.80
2022-11-01T05:39:58.598Z,100844.20
2022-11-01T05:43:08.719Z,100847.80
2022-11-01T05:46:18.710Z,100845.40
2022-11-01T05:49:28.643Z,100848.20
2022-11-01T05:52:38.640Z,100849.80
2022-11-01T05:55:45.571Z,100856.40
2022-11-01T05:58:56.686Z,100853.80
2022-11-01T06:02:15.853Z,100857.20
2022-11-01T06:05:23.750Z,100859.40
2022-11-01T06:08:33.689Z,100853.00
2022-11-01T06:11:50.830Z,100856.20
2022-11-01T06:15:02.683Z,100855.60
2022-11-01T06:18:12.739Z,100854.80
2022-11-01T06:21:30.037Z,100859.80
2022-11-01T06:24:40.695Z,100858.80
2022-11-01T06:27:50.685Z,100856.60
2022-11-01T06:34:18.676Z,100863.40
2022-11-01T06:37:29.835Z,100861.80
2022-11-01T06:44:58.968Z,100866.20
2022-11-01T06:48:08.773Z,100866.80
2022-11-01T06:51:18.813Z,100862.20
2022-11-01T06:54:25.835Z,100859.80
2022-11-01T07:01:31.076Z,100862.00
2022-11-01T07:04:38.862Z,100861.80
2022-11-01T07:07:48.858Z,100858.40
2022-11-01T07:10:55.862Z,100857.60
2022-11-01T07:14:02.919Z,100865.20
2022-11-01T07:17:12.819Z,100862.20
2022-11-01T07:20:27.905Z,100860.80
2022-11-01T07:23:37.942Z,100859.00
2022-11-01T07:26:51.984Z,100862.20
2022-11-01T07:30:01.916Z,100866.00
2022-11-01T07:33:09.890Z,100860.80
2022-11-01T07:36:19.898Z,100856.00
2022-11-01T07:39:26.952Z,100856.40
2022-11-01T07:42:36.945Z,100853.40
2022-11-01T07:45:57.947Z,100848.80
2022-11-01T07:49:04.943Z,100848.40
2022-11-01T07:52:11.960Z,100849.00
2022-11-01T07:55:21.979Z,100848.80
2022-11-01T07:58:28.959Z,100848.60
2022-11-01T08:01:36.053Z,100842.00
2022-11-01T08:04:44.016Z,100844.80
2022-11-01T08:07:51.014Z,100844.20
2022-11-01T08:11:01.115Z,100843.40
2022-11-01T08:14:12.257Z,100832.80
2022-11-01T08:17:23.248Z,100828.00
2022-11-01T08:20:31.013Z,100830.20
2022-11-01T08:23:41.066Z,100831.00
2022-11-01T08:26:51.057Z,100826.40
2022-11-01T08:29:58.055Z,100818.80
2022-11-01T08:33:08.114Z,100820.60
2022-11-01T08:36:18.060Z,100819.60
2022-11-01T08:39:28.081Z,100816.40
2022-11-01T08:42:38.191Z,100819.20
2022-11-01T08:45:48.155Z,100821.80
2022-11-01T08:49:02.215Z,100818.20
2022-11-01T08:52:12.180Z,100816.20
2022-11-01T08:55:22.279Z,100812.60
2022-11-01T08:58:41.163Z,100812.00
2022-11-01T09:01:51.247Z,100807.80
2022-11-01T09:05:07.167Z,100805.00
2022-11-01T09:08:30.071Z,100808.60
2022-11-01T09:11:37.175Z,100809.80
2022-11-01T09:14:44.193Z,100807.40
2022-11-01T09:17:54.207Z,100803.00
2022-11-01T09:21:04.124Z,100803.20
2022-11-01T09:28:33.811Z,100804.00
2022-11-01T09:36:21.448Z,100801.60
2022-11-01T09:40:16.209Z,100798.00
2022-11-01T09:43:19.262Z,100795.40
2022-11-01T09:46:29.259Z,100795.80
2022-11-01T09:49:36.334Z,100788.40
2022-11-01T09:52:46.283Z,100788.80
2022-11-01T09:55:53.331Z,100785.80
2022-11-01T09:59:03.265Z,100784.60
2022-11-01T10:02:13.350Z,100789.40
2022-11-01T10:05:23.309Z,100785.20
2022-11-01T10:08:33.273Z,100781.40
2022-11-01T10:11:40.336Z,100775.80
2022-11-01T10:14:50.383Z,100771.00
2022-11-01T10:18:00.290Z,100770.00
2022-11-01T10:21:10.402Z,100768.20
2022-11-01T10:24:20.299Z,100767.00
2022-11-01T10:27:27.377Z,100762.20
2022-11-01T10:30:34.464Z,100758.80
2022-11-01T10:33:47.376Z,100758.00
2022-11-01T10:36:54.400Z,100764.00
2022-11-01T10:40:09.297Z,100753.00
2022-11-01T10:43:17.437Z,100753.60
2022-11-01T10:46:27.451Z,100748.40
2022-11-01T10:53:18.409Z,100744.00
2022-11-01T10:56:33.852Z,100740.80
2022-11-01T10:59:53.553Z,100732.00
2022-11-01T11:03:15.509Z,100734.80
2022-11-01T11:06:26.637Z,100734.20
2022-11-01T11:09:37.496Z,100729.60
2022-11-01T11:12:48.706Z,100725.00
2022-11-01T11:16:06.514Z,100722.60
2022-11-01T11:19:16.674Z,100720.80
2022-11-01T11:22:27.909Z,100711.20
2022-11-01T11:25:45.673Z,100703.80
2022-11-01T11:28:55.518Z,100702.00
2022-11-01T11:32:07.826Z,100701.00
2022-11-01T11:35:19.854Z,100697.00
2022-11-01T11:38:30.559Z,100691.40
2022-11-01T11:41:40.542Z,100692.20
2022-11-01T11:44:53.839Z,100697.80
2022-11-01T11:48:13.968Z,100686.40
2022-11-01T11:51:22.562Z,100685.60
2022-11-01T11:54:36.159Z,100682.60
2022-11-01T11:57:43.581Z,100681.20
2022-11-01T12:00:57.635Z,100676.00
2022-11-01T12:04:07.541Z,100672.60
2022-11-01T12:07:14.617Z,100672.40
2022-11-01T12:10:22.594Z,100667.40
2022-11-01T12:13:29.730Z,100670.80
2022-11-01T12:16:39.695Z,100663.60
2022-11-01T12:19:50.722Z,100664.20
2022-11-01T12:23:08.042Z,100665.80
2022-11-01T12:26:20.753Z,100659.40
2022-11-01T12:29:31.636Z,100658.60
2022-11-01T12:32:43.646Z,100655.60
2022-11-01T12:35:54.695Z,100654.80
2022-11-01T12:39:07.698Z,100659.20
2022-11-01T12:42:17.667Z,100659.00
2022-11-01T12:45:27.727Z,100647.60
2022-11-01T12:48:44.680Z,100645.20
2022-11-01T12:51:55.728Z,100649.40
2022-11-01T12:55:17.969Z,100645.20
2022-11-01T12:58:33.747Z,100638.40
2022-11-01T13:01:42.885Z,100639.40
2022-11-01T13:04:53.715Z,100636.00
2022-11-01T13:08:03.723Z,100640.40
2022-11-01T13:11:13.814Z,100638.80
2022-11-01T13:14:23.731Z,100638.80
2022-11-01T13:17:37.098Z,100635.20
2022-11-01T13:20:44.808Z,100631.20
2022-11-01T13:23:55.814Z,100632.80
2022-11-01T13:27:05.831Z,100629.80
2022-11-01T13:30:16.948Z,100629.20
2022-11-01T13:33:26.883Z,100626.20
2022-11-01T13:36:36.825Z,100625.00
2022-11-01T13:39:46.852Z,100621.40
2022-11-01T13:42:59.610Z,100622.60
2022-11-01T13:49:39.937Z,100620.40
2022-11-01T13:52:46.881Z,100616.60
2022-11-01T13:55:56.944Z,100614.40
2022-11-01T13:59:06.894Z,100609.20
2022-11-01T14:02:16.980Z,100608.00
2022-11-01T14:05:25.029Z,100607.00
2022-11-01T14:08:32.952Z,100606.60
2022-11-01T14:11:39.951Z,100604.20
2022-11-01T14:14:49.910Z,100603.40
2022-11-01T14:17:56.956Z,100605.60
2022-11-01T14:21:06.929Z,100607.00
2022-11-01T14:24:13.955Z,100605.40
2022-11-01T14:27:23.948Z,100608.80
2022-11-01T14:30:30.972Z,100606.00
2022-11-01T14:33:37.928Z,100601.40
2022-11-01T14:36:47.991Z,100598.60
2022-11-01T14:39:58.009Z,100594.00
2022-11-01T14:43:08.033Z,100592.20
2022-11-01T14:46:18.025Z,100589.20
2022-11-01T14:49:28.065Z,100589.20
2022-11-01T14:52:40.060Z,100583.60
2022-11-01T14:55:51.118Z,100583.20
2022-11-01T14:59:00.970Z,100579.40
2022-11-01T15:02:08.123Z,100580.80
2022-11-01T15:05:18.043Z,100584.60
2022-11-01T15:08:28.290Z,100583.40
2022-11-01T15:11:42.173Z,100582.60
2022-11-01T15:14:53.124Z,100585.20
2022-11-01T15:18:04.309Z,100578.40
2022-11-01T15:21:12.125Z,100578.80
2022-11-01T15:24:22.210Z,100573.60
2022-11-01T15:27:29.126Z,100572.80
2022-11-01T15:30:39.065Z,100578.40
2022-11-01T15:33:57.144Z,100574.60
2022-11-01T15:37:09.532Z,100576.40
2022-11-01T15:44:00.180Z,100574.40
2022-11-01T15:47:10.224Z,100572.00
2022-11-01T15:50:17.213Z,100576.60
2022-11-01T15:53:24.258Z,100578.20
2022-11-01T15:56:34.300Z,100580.60
2022-11-01T15:59:41.132Z,100578.60
2022-11-01T16:02:48.266Z,100582.60
2022-11-01T16:05:59.786Z,100582.80
2022-11-01T16:09:07.154Z,100587.80
2022-11-01T16:12:14.251Z,100585.60
2022-11-01T16:15:27.301Z,100586.60
2022-11-01T16:22:02.337Z,100594.00
2022-11-01T16:25:09.357Z,100594.20
2022-11-01T16:28:24.093Z,100585.20
2022-11-01T16:31:31.334Z,100577.80
2022-11-01T16:34:38.434Z,100584.20
2022-11-01T16:37:45.350Z,100582.80
2022-11-01T16:40:55.334Z,100589.40
2022-11-01T16:44:05.356Z,100592.80
2022-11-01T16:47:12.421Z,100597.40
2022-11-01T16:50:22.396Z,100594.20
2022-11-01T16:53:33.467Z,100594.40
2022-11-01T16:56:43.432Z,100593.00
2022-11-01T16:59:53.440Z,100591.00
2022-11-01T17:03:00.542Z,100595.00
2022-11-01T17:06:08.545Z,100601.00
2022-11-01T17:09:18.419Z,100596.80
2022-11-01T17:12:25.503Z,100598.00
2022-11-01T17:15:32.450Z,100592.00
2022-11-01T17:18:39.492Z,100601.00
2022-11-01T17:25:06.458Z,100601.60
2022-11-01T17:28:16.531Z,100596.40
2022-11-01T17:31:26.489Z,100594.80
2022-11-01T17:34:36.538Z,100590.20
2022-11-01T17:37:46.518Z,100591.00
2022-11-01T17:40:55.896Z,100588.20
2022-11-01T17:44:03.606Z,100585.40
2022-11-01T17:47:13.567Z,100584.80
2022-11-01T17:50:34.546Z,100577.60
2022-11-01T17:53:44.575Z,100576.00
2022-11-01T17:56:52.940Z,100568.40
2022-11-01T18:00:00.576Z,100569.40
2022-11-01T18:03:10.723Z,100570.60
2022-11-01T18:06:23.772Z,100568.00
2022-11-01T18:09:31.616Z,100570.00
2022-11-01T18:12:38.575Z,100568.20
2022-11-01T18:15:45.657Z,100567.20
2022-11-01T18:18:53.713Z,100570.00
2022-11-01T18:22:03.626Z,100571.80
2022-11-01T18:25:10.665Z,100574.60
2022-11-01T18:28:20.966Z,100566.40
2022-11-01T18:31:28.663Z,100566.80
2022-11-01T18:34:38.654Z,100567.40
2022-11-01T18:37:45.659Z,100569.40
2022-11-01T18:40:52.702Z,100555.40
2022-11-01T18:43:59.659Z,100552.80
2022-11-01T18:47:09.685Z,100549.60
2022-11-01T18:50:19.755Z,100554.40
2022-11-01T18:53:29.829Z,100553.80
2022-11-01T18:56:39.766Z,100548.60
2022-11-01T18:59:46.661Z,100544.00
2022-11-01T19:02:59.507Z,100539.20
2022-11-01T19:06:08.973Z,100541.20
2022-11-01T19:09:18.595Z,100548.80
2022-11-01T19:12:28.671Z,100549.00
2022-11-01T19:15:35.723Z,100549.20
2022-11-01T19:18:49.769Z,100547.00
2022-11-01T19:21:59.808Z,100546.40
2022-11-01T19:25:12.743Z,100546.80
2022-11-01T19:28:27.828Z,100546.00
2022-11-01T19:31:38.831Z,100549.40
2022-11-01T19:34:52.828Z,100550.40
2022-11-01T19:38:03.126Z,100553.00
2022-11-01T19:41:14.961Z,100545.80
2022-11-01T19:44:25.817Z,100540.80
2022-11-01T19:47:32.897Z,100541.40
2022-11-01T19:50:42.851Z,100539.00
2022-11-01T19:53:52.982Z,100541.80
2022-11-01T19:57:02.941Z,100546.40
2022-11-01T20:00:15.774Z,100549.00
2022-11-01T20:03:25.928Z,100540.20
2022-11-01T20:06:36.001Z,100533.60
2022-11-01T20:09:48.889Z,100532.60
2022-11-01T20:12:55.910Z,100531.00
2022-11-01T20:16:05.908Z,100530.40
2022-11-01T20:19:23.364Z,100527.20
2022-11-01T20:22:33.884Z,100532.20
2022-11-01T20:25:41.899Z,100533.40
2022-11-01T20:28:48.927Z,100532.00
2022-11-01T20:31:57.949Z,100525.60
2022-11-01T20:35:05.972Z,100526.40
2022-11-01T20:38:16.028Z,100521.00
2022-11-01T20:41:26.219Z,100518.60
2022-11-01T20:44:36.975Z,100511.20
2022-11-01T20:47:46.983Z,100509.60
2022-11-01T20:51:08.114Z,100512.40
2022-11-01T20:54:18.032Z,100505.40
2022-11-01T20:57:31.013Z,100502.60
2022-11-01T21:00:37.989Z,100500.20
2022-11-01T21:03:51.407Z,100500.40
2022-11-01T21:06:59.036Z,100498.20
2022-11-01T21:17:12.047Z,100488.80
2022-11-01T21:20:20.066Z,100483.00
2022-11-01T21:23:40.408Z,100480.00
2022-11-01T21:26:56.081Z,100477.40
2022-11-01T21:30:06.220Z,100476.20
2022-11-01T21:33:19.102Z,100472.00
2022-11-01T21:36:26.085Z,100467.60
2022-11-01T21:39:33.179Z,100471.80
2022-11-01T21:42:43.114Z,100463.60
2022-11-01T21:45:50.361Z,100464.20
2022-11-01T21:49:18.262Z,100461.00
2022-11-01T21:52:25.229Z,100458.80
2022-11-01T21:55:38.291Z,100458.20
2022-11-01T21:58:50.288Z,100455.20
2022-11-01T22:02:03.487Z,100453.20
2022-11-01T22:06:25.327Z,100450.80
2022-11-01T22:09:54.217Z,100447.80
2022-11-01T22:16:51.288Z,100438.20
2022-11-01T22:20:32.331Z,100436.00
2022-11-01T22:23:44.870Z,100435.00
2022-11-01T22:27:10.911Z,100427.40
2022-11-01T22:30:51.261Z,100425.80
2022-11-01T22:34:09.253Z,100418.80
2022-11-01T22:37:29.404Z,100420.80
2022-11-01T22:41:01.230Z,100421.80
2022-11-01T22:44:19.674Z,100416.00
2022-11-01T22:48:11.765Z,100405.20
2022-11-01T22:51:30.517Z,100400.80
2022-11-01T22:54:46.907Z,100398.60
2022-11-01T22:58:31.402Z,100394.20
2022-11-01T23:02:22.706Z,100392.00
2022-11-01T23:05:55.405Z,100388.80
2022-11-01T23:25:03.487Z,100378.60
2022-11-01T23:29:06.907Z,100371.80
2022-11-01T23:32:57.561Z,100374.00
2022-11-01T23:36:47.260Z,100371.00
2022-11-01T23:40:10.749Z,100373.00
2022-11-01T23:44:04.835Z,100374.00
2022-11-01T23:47:52.300Z,100372.00
2022-11-01T23:51:41.616Z,100369.20
2022-11-01T23:55:30.956Z,100371.00
